Schoonebeek, Netherlands
Current Conditions -  °F | °C
As of 12:25 AM on Sunday 23 Nov 2014 (Local Time) from EHGG Reporting Station
Clear Clear  
Wind Chill: 46°   Ceiling: Unl
Heat Index: 46°   Visibility: 5mi
Dew Point: 43°   Wind: 2mph
Humidity: 87%   Direction: NA
Pressure: 30.06"   Gusts: NA
Location:  52.66°N, 6.88°E
Report Text: EHGG 222325Z AUTO VRB02KT 8000 NSC 08/06 Q1018
Loading
Personal Weather Stations






























Interactive Weather Map New forecast layout! Learn more

10-Day Weather Forecast

Advertisements
Track Severe Weather on mobile